sensor_id;sensor_type;location;lat;lon;timestamp;temperature;humidity
6439;DHT22;3252;52.540;13.290;2024-01-15T00:01:33;18.20;95.00
6439;DHT22;3252;52.540;13.290;2024-01-15T00:03:35;18.20;95.00
6439;DHT22;3252;52.540;13.290;2024-01-15T00:05:37;18.20;95.10
6439;DHT22;3252;52.540;13.290;2024-01-15T00:07:39;18.20;95.10
6439;DHT22;3252;52.540;13.290;2024-01-15T00:09:41;18.20;95.10
6439;DHT22;3252;52.540;13.290;2024-01-15T00:11:44;18.20;95.10
6439;DHT22;3252;52.540;13.290;2024-01-15T00:13:47;18.10;95.10
6439;DHT22;3252;52.540;13.290;2024-01-15T00:15:49;18.10;95.40
6439;DHT22;3252;52.540;13.290;2024-01-15T00:17:51;18.10;95.10
6439;DHT22;3252;52.540;13.290;2024-01-15T00:19:53;18.10;95.40
6439;DHT22;3252;52.540;13.290;2024-01-15T00:21:55;18.10;95.20
6439;DHT22;3252;52.540;13.290;2024-01-15T00:23:58;18.10;95.20
6439;DHT22;3252;52.540;13.290;2024-01-15T00:26:00;18.10;95.20
6439;DHT22;3252;52.540;13.290;2024-01-15T00:28:04;18.10;95.20
6439;DHT22;3252;52.540;13.290;2024-01-15T00:30:07;18.10;95.20
6439;DHT22;3252;52.540;13.290;2024-01-15T00:32:10;18.10;95.20
6439;DHT22;3252;52.540;13.290;2024-01-15T00:34:12;18.10;95.30
6439;DHT22;3252;52.540;13.290;2024-01-15T00:36:14;18.10;95.30
6439;DHT22;3252;52.540;13.290;2024-01-15T00:38:17;18.10;95.30
6439;DHT22;3252;52.540;13.290;2024-01-15T00:40:19;18.10;95.30
6439;DHT22;3252;52.540;13.290;2024-01-15T00:42:21;18.10;95.30
6439;DHT22;3252;52.540;13.290;2024-01-15T00:44:24;18.00;95.30
6439;DHT22;3252;52.540;13.290;2024-01-15T00:46:26;18.10;95.30
6439;DHT22;3252;52.540;13.290;2024-01-15T00:48:28;18.10;95.30
6439;DHT22;3252;52.540;13.290;2024-01-15T00:50:30;18.00;95.30
6439;DHT22;3252;52.540;13.290;2024-01-15T00:52:32;18.00;95.30
6439;DHT22;3252;52.540;13.290;2024-01-15T00:54:35;18.00;95.30
6439;DHT22;3252;52.540;13.290;2024-01-15T00:56:37;18.00;95.30
6439;DHT22;3252;52.540;13.290;2024-01-15T00:58:39;18.00;95.30
6439;DHT22;3252;52.540;13.290;2024-01-15T01:00:42;18.00;95.40
6439;DHT22;3252;52.540;13.290;2024-01-15T01:02:44;18.00;95.40
6439;DHT22;3252;52.540;13.290;2024-01-15T01:04:46;18.00;95.40
6439;DHT22;3252;52.540;13.290;2024-01-15T01:06:48;18.00;95.40
6439;DHT22;3252;52.540;13.290;2024-01-15T01:08:50;18.00;95.40
6439;DHT22;3252;52.540;13.290;2024-01-15T01:10:51;18.00;95.40
6439;DHT22;3252;52.540;13.290;2024-01-15T01:12:53;17.90;95.30
6439;DHT22;3252;52.540;13.290;2024-01-15T01:14:55;18.00;95.40
6439;DHT22;3252;52.540;13.290;2024-01-15T01:16:58;18.00;95.40
6439;DHT22;3252;52.540;13.290;2024-01-15T01:19:00;17.90;95.40
6439;DHT22;3252;52.540;13.290;2024-01-15T01:21:02;17.90;95.40
6439;DHT22;3252;52.540;13.290;2024-01-15T01:23:04;17.90;95.40
6439;DHT22;3252;52.540;13.290;2024-01-15T01:25:06;17.90;95.40
6439;DHT22;3252;52.540;13.290;2024-01-15T01:27:08;17.90;95.40
6439;DHT22;3252;52.540;13.290;2024-01-15T01:29:10;17.90;95.50
6439;DHT22;3252;52.540;13.290;2024-01-15T01:31:12;17.90;95.50
6439;DHT22;3252;52.540;13.290;2024-01-15T01:33:16;17.90;95.80
6439;DHT22;3252;52.540;13.290;2024-01-15T01:35:18;17.90;95.50
6439;DHT22;3252;52.540;13.290;2024-01-15T01:37:19;17.90;95.50
6439;DHT22;3252;52.540;13.290;2024-01-15T01:39:21;17.90;95.50
6439;DHT22;3252;52.540;13.290;2024-01-15T01:41:23;17.90;95.50
6439;DHT22;3252;52.540;13.290;2024-01-15T01:43:25;17.90;95.80
6439;DHT22;3252;52.540;13.290;2024-01-15T01:45:27;17.90;95.50
6439;DHT22;3252;52.540;13.290;2024-01-15T01:47:29;17.80;95.50
6439;DHT22;3252;52.540;13.290;2024-01-15T01:49:33;17.80;95.50
6439;DHT22;3252;52.540;13.290;2024-01-15T01:51:36;17.90;95.60
6439;DHT22;3252;52.540;13.290;2024-01-15T01:53:40;17.80;95.50
6439;DHT22;3252;52.540;13.290;2024-01-15T01:55:42;17.80;95.50
6439;DHT22;3252;52.540;13.290;2024-01-15T01:57:45;17.80;95.50
6439;DHT22;3252;52.540;13.290;2024-01-15T01:59:47;17.80;95.50
6439;DHT22;3252;52.540;13.290;2024-01-15T02:01:50;17.80;95.50
6439;DHT22;3252;52.540;13.290;2024-01-15T02:03:52;17.80;95.50
6439;DHT22;3252;52.540;13.290;2024-01-15T02:05:59;17.80;95.50
6439;DHT22;3252;52.540;13.290;2024-01-15T02:08:01;17.80;95.50
6439;DHT22;3252;52.540;13.290;2024-01-15T02:10:04;17.80;95.60
6439;DHT22;3252;52.540;13.290;2024-01-15T02:12:07;17.80;95.60
6439;DHT22;3252;52.540;13.290;2024-01-15T02:14:09;17.80;95.60
6439;DHT22;3252;52.540;13.290;2024-01-15T02:16:11;17.80;95.60
6439;DHT22;3252;52.540;13.290;2024-01-15T02:18:13;17.80;95.60
6439;DHT22;3252;52.540;13.290;2024-01-15T02:20:15;17.80;95.60
6439;DHT22;3252;52.540;13.290;2024-01-15T02:22:18;17.80;95.60
6439;DHT22;3252;52.540;13.290;2024-01-15T02:24:21;17.80;95.60
6439;DHT22;3252;52.540;13.290;2024-01-15T02:26:23;17.80;95.60
6439;DHT22;3252;52.540;13.290;2024-01-15T02:28:26;17.80;95.60
6439;DHT22;3252;52.540;13.290;2024-01-15T02:30:28;17.70;95.60
6439;DHT22;3252;52.540;13.290;2024-01-15T02:32:31;17.70;95.60
6439;DHT22;3252;52.540;13.290;2024-01-15T02:34:33;17.70;95.60
6439;DHT22;3252;52.540;13.290;2024-01-15T02:36:36;17.70;95.60
6439;DHT22;3252;52.540;13.290;2024-01-15T02:38:38;17.70;95.60
6439;DHT22;3252;52.540;13.290;2024-01-15T02:40:41;17.70;95.60
6439;DHT22;3252;52.540;13.290;2024-01-15T02:42:43;17.70;95.60
6439;DHT22;3252;52.540;13.290;2024-01-15T02:44:45;17.70;95.60
6439;DHT22;3252;52.540;13.290;2024-01-15T02:46:49;17.70;95.60
6439;DHT22;3252;52.540;13.290;2024-01-15T02:48:51;17.70;95.60
6439;DHT22;3252;52.540;13.290;2024-01-15T02:50:53;17.70;95.60
6439;DHT22;3252;52.540;13.290;2024-01-15T02:52:54;17.70;95.60
6439;DHT22;3252;52.540;13.290;2024-01-15T02:54:56;17.70;95.60
6439;DHT22;3252;52.540;13.290;2024-01-15T02:56:59;17.70;95.60
6439;DHT22;3252;52.540;13.290;2024-01-15T02:59:01;17.70;95.70
6439;DHT22;3252;52.540;13.290;2024-01-15T03:01:04;17.60;95.60
6439;DHT22;3252;52.540;13.290;2024-01-15T03:03:06;17.60;95.60
6439;DHT22;3252;52.540;13.290;2024-01-15T03:05:08;17.60;95.60
6439;DHT22;3252;52.540;13.290;2024-01-15T03:07:11;17.60;95.60
6439;DHT22;3252;52.540;13.290;2024-01-15T03:09:13;17.60;95.60
6439;DHT22;3252;52.540;13.290;2024-01-15T03:11:15;17.60;95.60
6439;DHT22;3252;52.540;13.290;2024-01-15T03:13:18;17.60;95.60
6439;DHT22;3252;52.540;13.290;2024-01-15T03:15:21;17.60;95.60
6439;DHT22;3252;52.540;13.290;2024-01-15T03:17:23;17.60;95.70
6439;DHT22;3252;52.540;13.290;2024-01-15T03:19:25;17.60;95.70
6439;DHT22;3252;52.540;13.290;2024-01-15T03:21:27;17.60;95.70
6439;DHT22;3252;52.540;13.290;2024-01-15T03:23:29;17.60;95.70
6439;DHT22;3252;52.540;13.290;2024-01-15T03:25:31;17.60;95.70
6439;DHT22;3252;52.540;13.290;2024-01-15T03:27:33;17.60;95.70
6439;DHT22;3252;52.540;13.290;2024-01-15T03:29:37;17.60;95.70
6439;DHT22;3252;52.540;13.290;2024-01-15T03:31:39;17.60;95.70
6439;DHT22;3252;52.540;13.290;2024-01-15T03:33:40;17.60;95.70
6439;DHT22;3252;52.540;13.290;2024-01-15T03:35:42;17.60;95.70
6439;DHT22;3252;52.540;13.290;2024-01-15T03:37:43;17.60;95.70
6439;DHT22;3252;52.540;13.290;2024-01-15T03:39:45;17.60;95.70
6439;DHT22;3252;52.540;13.290;2024-01-15T03:41:46;17.60;95.70
6439;DHT22;3252;52.540;13.290;2024-01-15T03:43:48;17.60;95.70
6439;DHT22;3252;52.540;13.290;2024-01-15T03:45:52;17.60;95.70
6439;DHT22;3252;52.540;13.290;2024-01-15T03:47:54;17.60;95.70
6439;DHT22;3252;52.540;13.290;2024-01-15T03:49:56;17.70;95.70
6439;DHT22;3252;52.540;13.290;2024-01-15T03:51:58;17.80;95.50
6439;DHT22;3252;52.540;13.290;2024-01-15T03:54:00;18.10;95.20
6439;DHT22;3252;52.540;13.290;2024-01-15T03:56:02;18.30;94.70
6439;DHT22;3252;52.540;13.290;2024-01-15T03:58:04;18.50;94.40
6439;DHT22;3252;52.540;13.290;2024-01-15T04:00:07;18.70;94.20
6439;DHT22;3252;52.540;13.290;2024-01-15T04:02:10;18.70;94.00
6439;DHT22;3252;52.540;13.290;2024-01-15T04:04:12;18.80;94.00
6439;DHT22;3252;52.540;13.290;2024-01-15T04:06:14;18.80;93.90
6439;DHT22;3252;52.540;13.290;2024-01-15T04:08:16;18.90;93.80
6439;DHT22;3252;52.540;13.290;2024-01-15T04:10:18;19.10;93.50
6439;DHT22;3252;52.540;13.290;2024-01-15T04:12:20;19.40;93.10
6439;DHT22;3252;52.540;13.290;2024-01-15T04:14:22;19.60;92.60
6439;DHT22;3252;52.540;13.290;2024-01-15T04:16:23;19.90;92.10
6439;DHT22;3252;52.540;13.290;2024-01-15T04:18:26;20.20;91.60
6439;DHT22;3252;52.540;13.290;2024-01-15T04:20:29;20.40;91.20
6439;DHT22;3252;52.540;13.290;2024-01-15T04:22:31;20.60;90.90
6439;DHT22;3252;52.540;13.290;2024-01-15T04:24:33;20.70;90.60
6439;DHT22;3252;52.540;13.290;2024-01-15T04:26:35;20.90;90.30
6439;DHT22;3252;52.540;13.290;2024-01-15T04:28:37;21.00;90.20
6439;DHT22;3252;52.540;13.290;2024-01-15T04:30:39;21.10;90.00
6439;DHT22;3252;52.540;13.290;2024-01-15T04:32:40;21.20;89.80
6439;DHT22;3252;52.540;13.290;2024-01-15T04:34:43;21.20;89.30
6439;DHT22;3252;52.540;13.290;2024-01-15T04:36:46;21.30;89.10
6439;DHT22;3252;52.540;13.290;2024-01-15T04:38:48;21.40;89.00
6439;DHT22;3252;52.540;13.290;2024-01-15T04:40:50;21.40;89.10
6439;DHT22;3252;52.540;13.290;2024-01-15T04:42:52;21.40;89.30
6439;DHT22;3252;52.540;13.290;2024-01-15T04:44:54;21.40;89.40
6439;DHT22;3252;52.540;13.290;2024-01-15T04:46:56;21.30;89.60
6439;DHT22;3252;52.540;13.290;2024-01-15T04:48:58;21.20;89.90
6439;DHT22;3252;52.540;13.290;2024-01-15T04:51:04;21.20;90.20
6439;DHT22;3252;52.540;13.290;2024-01-15T04:53:05;21.20;90.30
6439;DHT22;3252;52.540;13.290;2024-01-15T04:55:07;21.10;90.40
6439;DHT22;3252;52.540;13.290;2024-01-15T04:57:09;21.10;90.50
6439;DHT22;3252;52.540;13.290;2024-01-15T04:59:11;21.00;90.60
6439;DHT22;3252;52.540;13.290;2024-01-15T05:01:15;21.00;90.70
6439;DHT22;3252;52.540;13.290;2024-01-15T05:03:17;20.90;90.70
6439;DHT22;3252;52.540;13.290;2024-01-15T05:05:19;20.90;90.90
6439;DHT22;3252;52.540;13.290;2024-01-15T05:07:23;20.90;91.00
6439;DHT22;3252;52.540;13.290;2024-01-15T05:09:24;20.90;90.90
6439;DHT22;3252;52.540;13.290;2024-01-15T05:11:26;21.00;90.80
6439;DHT22;3252;52.540;13.290;2024-01-15T05:13:27;21.10;90.70
6439;DHT22;3252;52.540;13.290;2024-01-15T05:15:30;21.20;90.40
6439;DHT22;3252;52.540;13.290;2024-01-15T05:17:32;21.30;90.20
6439;DHT22;3252;52.540;13.290;2024-01-15T05:19:34;21.40;90.00
6439;DHT22;3252;52.540;13.290;2024-01-15T05:21:36;21.50;89.70
6439;DHT22;3252;52.540;13.290;2024-01-15T05:23:39;21.60;89.40
6439;DHT22;3252;52.540;13.290;2024-01-15T05:25:41;21.60;89.10
6439;DHT22;3252;52.540;13.290;2024-01-15T05:27:44;21.70;89.00
6439;DHT22;3252;52.540;13.290;2024-01-15T05:29:46;21.70;88.80
6439;DHT22;3252;52.540;13.290;2024-01-15T05:31:48;21.70;88.50
6439;DHT22;3252;52.540;13.290;2024-01-15T05:33:50;21.80;88.50
6439;DHT22;3252;52.540;13.290;2024-01-15T05:35:52;21.80;88.20
6439;DHT22;3252;52.540;13.290;2024-01-15T05:37:55;21.90;88.30
6439;DHT22;3252;52.540;13.290;2024-01-15T05:39:58;21.90;88.20
6439;DHT22;3252;52.540;13.290;2024-01-15T05:42:01;21.90;88.10
6439;DHT22;3252;52.540;13.290;2024-01-15T05:44:03;22.00;88.10
6439;DHT22;3252;52.540;13.290;2024-01-15T05:46:05;22.00;87.90
6439;DHT22;3252;52.540;13.290;2024-01-15T05:48:08;22.00;87.80
6439;DHT22;3252;52.540;13.290;2024-01-15T05:50:10;22.00;88.00
6439;DHT22;3252;52.540;13.290;2024-01-15T05:52:13;22.00;88.60
6439;DHT22;3252;52.540;13.290;2024-01-15T05:54:14;22.00;89.00
6439;DHT22;3252;52.540;13.290;2024-01-15T05:56:17;22.00;89.20
6439;DHT22;3252;52.540;13.290;2024-01-15T05:58:19;22.00;89.40
6439;DHT22;3252;52.540;13.290;2024-01-15T06:00:21;22.00;89.40
6439;DHT22;3252;52.540;13.290;2024-01-15T06:02:23;22.00;89.80
6439;DHT22;3252;52.540;13.290;2024-01-15T06:04:25;22.00;90.10
6439;DHT22;3252;52.540;13.290;2024-01-15T06:06:27;22.00;90.30
6439;DHT22;3252;52.540;13.290;2024-01-15T06:08:29;21.90;90.40
6439;DHT22;3252;52.540;13.290;2024-01-15T06:10:31;21.90;90.30
6439;DHT22;3252;52.540;13.290;2024-01-15T06:12:35;21.90;90.50
6439;DHT22;3252;52.540;13.290;2024-01-15T06:14:37;21.90;90.80
6439;DHT22;3252;52.540;13.290;2024-01-15T06:16:39;21.80;90.80
6439;DHT22;3252;52.540;13.290;2024-01-15T06:18:41;21.80;91.30
6439;DHT22;3252;52.540;13.290;2024-01-15T06:20:42;21.70;91.60
6439;DHT22;3252;52.540;13.290;2024-01-15T06:22:45;21.60;91.80
6439;DHT22;3252;52.540;13.290;2024-01-15T06:24:47;21.60;91.90
6439;DHT22;3252;52.540;13.290;2024-01-15T06:26:49;21.60;92.00
6439;DHT22;3252;52.540;13.290;2024-01-15T06:28:52;21.50;92.10
6439;DHT22;3252;52.540;13.290;2024-01-15T06:30:54;21.50;92.10
6439;DHT22;3252;52.540;13.290;2024-01-15T06:32:55;21.40;92.30
6439;DHT22;3252;52.540;13.290;2024-01-15T06:34:58;21.30;92.50
6439;DHT22;3252;52.540;13.290;2024-01-15T06:37:00;21.30;92.70
6439;DHT22;3252;52.540;13.290;2024-01-15T06:39:02;21.20;92.80
6439;DHT22;3252;52.540;13.290;2024-01-15T06:41:03;21.20;92.90
6439;DHT22;3252;52.540;13.290;2024-01-15T06:43:06;21.10;93.00
6439;DHT22;3252;52.540;13.290;2024-01-15T06:45:09;21.10;93.20
6439;DHT22;3252;52.540;13.290;2024-01-15T06:47:11;21.00;93.30
6439;DHT22;3252;52.540;13.290;2024-01-15T06:49:13;21.00;93.40
6439;DHT22;3252;52.540;13.290;2024-01-15T06:51:16;20.90;93.40
6439;DHT22;3252;52.540;13.290;2024-01-15T06:53:17;20.80;93.40
6439;DHT22;3252;52.540;13.290;2024-01-15T06:55:19;20.80;93.50
6439;DHT22;3252;52.540;13.290;2024-01-15T06:57:20;20.80;93.60
6439;DHT22;3252;52.540;13.290;2024-01-15T06:59:22;20.70;93.60
6439;DHT22;3252;52.540;13.290;2024-01-15T07:01:26;20.70;93.60
6439;DHT22;3252;52.540;13.290;2024-01-15T07:03:28;20.60;93.70
6439;DHT22;3252;52.540;13.290;2024-01-15T07:05:31;20.60;93.70
6439;DHT22;3252;52.540;13.290;2024-01-15T07:07:33;20.60;93.80
6439;DHT22;3252;52.540;13.290;2024-01-15T07:09:35;20.50;93.80
6439;DHT22;3252;52.540;13.290;2024-01-15T07:11:37;20.50;93.80
6439;DHT22;3252;52.540;13.290;2024-01-15T07:13:39;20.50;93.80
6439;DHT22;3252;52.540;13.290;2024-01-15T07:15:42;20.40;94.00
6439;DHT22;3252;52.540;13.290;2024-01-15T07:17:45;20.40;94.00
6439;DHT22;3252;52.540;13.290;2024-01-15T07:19:47;20.40;94.20
6439;DHT22;3252;52.540;13.290;2024-01-15T07:21:49;20.40;94.30
6439;DHT22;3252;52.540;13.290;2024-01-15T07:23:51;20.40;94.50
6439;DHT22;3252;52.540;13.290;2024-01-15T07:25:53;20.40;94.50
6439;DHT22;3252;52.540;13.290;2024-01-15T07:27:55;20.40;94.50
6439;DHT22;3252;52.540;13.290;2024-01-15T07:29:58;20.50;94.60
6439;DHT22;3252;52.540;13.290;2024-01-15T07:32:00;20.50;94.50
6439;DHT22;3252;52.540;13.290;2024-01-15T07:34:04;20.60;94.50
6439;DHT22;3252;52.540;13.290;2024-01-15T07:36:06;20.60;94.40
6439;DHT22;3252;52.540;13.290;2024-01-15T07:38:09;20.70;94.40
6439;DHT22;3252;52.540;13.290;2024-01-15T07:40:12;20.70;94.40
6439;DHT22;3252;52.540;13.290;2024-01-15T07:42:14;20.80;94.40
6439;DHT22;3252;52.540;13.290;2024-01-15T07:44:17;20.80;94.40
6439;DHT22;3252;52.540;13.290;2024-01-15T07:46:19;20.80;94.40
6439;DHT22;3252;52.540;13.290;2024-01-15T07:48:21;20.80;94.40
6439;DHT22;3252;52.540;13.290;2024-01-15T07:50:24;20.80;94.40
6439;DHT22;3252;52.540;13.290;2024-01-15T07:52:26;20.80;94.40
6439;DHT22;3252;52.540;13.290;2024-01-15T07:54:29;20.90;94.50
6439;DHT22;3252;52.540;13.290;2024-01-15T07:56:30;20.80;94.70
6439;DHT22;3252;52.540;13.290;2024-01-15T07:58:33;20.80;94.50
6439;DHT22;3252;52.540;13.290;2024-01-15T08:00:36;20.80;94.60
6439;DHT22;3252;52.540;13.290;2024-01-15T08:02:38;20.80;94.60
6439;DHT22;3252;52.540;13.290;2024-01-15T08:04:40;20.80;94.70
6439;DHT22;3252;52.540;13.290;2024-01-15T08:06:44;20.80;94.80
6439;DHT22;3252;52.540;13.290;2024-01-15T08:08:46;20.80;94.90
6439;DHT22;3252;52.540;13.290;2024-01-15T08:10:48;20.70;94.90
6439;DHT22;3252;52.540;13.290;2024-01-15T08:12:50;20.80;95.00
6439;DHT22;3252;52.540;13.290;2024-01-15T08:14:52;20.80;96.00
6439;DHT22;3252;52.540;13.290;2024-01-15T08:16:55;20.80;95.80
6439;DHT22;3252;52.540;13.290;2024-01-15T08:18:57;20.90;95.50
6439;DHT22;3252;52.540;13.290;2024-01-15T08:20:59;21.00;95.10
6439;DHT22;3252;52.540;13.290;2024-01-15T08:23:03;21.00;95.60
6439;DHT22;3252;52.540;13.290;2024-01-15T08:25:08;21.10;95.10
6439;DHT22;3252;52.540;13.290;2024-01-15T08:27:10;21.10;72.20
6439;DHT22;3252;52.540;13.290;2024-01-15T08:29:13;21.00;57.20
6439;DHT22;3252;52.540;13.290;2024-01-15T08:31:15;20.90;53.00
6439;DHT22;3252;52.540;13.290;2024-01-15T08:33:17;20.70;50.90
6439;DHT22;3252;52.540;13.290;2024-01-15T08:35:20;20.40;50.00
6439;DHT22;3252;52.540;13.290;2024-01-15T08:37:23;20.20;51.30
6439;DHT22;3252;52.540;13.290;2024-01-15T08:39:27;20.00;51.00
6439;DHT22;3252;52.540;13.290;2024-01-15T08:41:31;19.70;50.70
6439;DHT22;3252;52.540;13.290;2024-01-15T08:43:34;19.50;51.80
6439;DHT22;3252;52.540;13.290;2024-01-15T08:45:37;19.30;51.90
6439;DHT22;3252;52.540;13.290;2024-01-15T08:47:40;19.10;53.00
6439;DHT22;3252;52.540;13.290;2024-01-15T08:49:42;19.00;54.20
6439;DHT22;3252;52.540;13.290;2024-01-15T08:51:46;19.00;55.20
6439;DHT22;3252;52.540;13.290;2024-01-15T08:53:49;19.00;66.90
6439;DHT22;3252;52.540;13.290;2024-01-15T08:55:54;19.00;74.00
6439;DHT22;3252;52.540;13.290;2024-01-15T08:57:57;19.00;77.60
6439;DHT22;3252;52.540;13.290;2024-01-15T08:59:59;19.10;79.40
6439;DHT22;3252;52.540;13.290;2024-01-15T09:02:03;19.10;80.70
6439;DHT22;3252;52.540;13.290;2024-01-15T09:04:05;19.20;81.70
6439;DHT22;3252;52.540;13.290;2024-01-15T09:06:08;19.30;82.70
6439;DHT22;3252;52.540;13.290;2024-01-15T09:08:12;19.40;83.30
6439;DHT22;3252;52.540;13.290;2024-01-15T09:10:15;19.50;83.80
6439;DHT22;3252;52.540;13.290;2024-01-15T09:12:19;19.50;84.10
6439;DHT22;3252;52.540;13.290;2024-01-15T09:14:22;19.60;84.60
6439;DHT22;3252;52.540;13.290;2024-01-15T09:16:27;19.70;85.10
6439;DHT22;3252;52.540;13.290;2024-01-15T09:18:30;19.80;85.50
6439;DHT22;3252;52.540;13.290;2024-01-15T09:20:32;19.80;86.20
6439;DHT22;3252;52.540;13.290;2024-01-15T09:22:34;19.80;86.50
6439;DHT22;3252;52.540;13.290;2024-01-15T09:24:36;19.90;87.40
6439;DHT22;3252;52.540;13.290;2024-01-15T09:26:38;20.00;87.20
6439;DHT22;3252;52.540;13.290;2024-01-15T09:28:42;20.10;87.30
6439;DHT22;3252;52.540;13.290;2024-01-15T09:30:44;20.10;87.50
6439;DHT22;3252;52.540;13.290;2024-01-15T09:32:46;20.20;87.50
6439;DHT22;3252;52.540;13.290;2024-01-15T09:34:48;20.30;87.70
6439;DHT22;3252;52.540;13.290;2024-01-15T09:36:51;20.40;87.80
6439;DHT22;3252;52.540;13.290;2024-01-15T09:38:53;20.50;88.00
6439;DHT22;3252;52.540;13.290;2024-01-15T09:40:54;20.50;88.10
6439;DHT22;3252;52.540;13.290;2024-01-15T09:42:56;20.50;88.30
6439;DHT22;3252;52.540;13.290;2024-01-15T09:45:00;20.60;88.60
6439;DHT22;3252;52.540;13.290;2024-01-15T09:47:05;20.60;88.80
6439;DHT22;3252;52.540;13.290;2024-01-15T09:49:07;20.60;89.00
6439;DHT22;3252;52.540;13.290;2024-01-15T09:51:09;20.60;89.30
6439;DHT22;3252;52.540;13.290;2024-01-15T09:53:14;20.60;89.60
6439;DHT22;3252;52.540;13.290;2024-01-15T09:55:17;20.60;90.00
6439;DHT22;3252;52.540;13.290;2024-01-15T09:57:19;20.60;90.10
6439;DHT22;3252;52.540;13.290;2024-01-15T09:59:22;20.60;90.20
6439;DHT22;3252;52.540;13.290;2024-01-15T10:01:28;20.60;91.00
6439;DHT22;3252;52.540;13.290;2024-01-15T10:03:30;20.70;92.10
6439;DHT22;3252;52.540;13.290;2024-01-15T10:05:31;20.70;92.00
6439;DHT22;3252;52.540;13.290;2024-01-15T10:07:35;20.70;91.60
6439;DHT22;3252;52.540;13.290;2024-01-15T10:09:36;20.70;91.90
6439;DHT22;3252;52.540;13.290;2024-01-15T10:11:39;20.70;92.00
6439;DHT22;3252;52.540;13.290;2024-01-15T10:13:42;20.70;91.30
6439;DHT22;3252;52.540;13.290;2024-01-15T10:15:45;20.70;91.30
6439;DHT22;3252;52.540;13.290;2024-01-15T10:17:50;20.70;91.30
6439;DHT22;3252;52.540;13.290;2024-01-15T10:19:52;20.70;91.30
6439;DHT22;3252;52.540;13.290;2024-01-15T10:21:53;20.80;91.40
6439;DHT22;3252;52.540;13.290;2024-01-15T10:23:55;20.80;91.40
6439;DHT22;3252;52.540;13.290;2024-01-15T10:25:58;20.80;91.50
6439;DHT22;3252;52.540;13.290;2024-01-15T10:28:01;20.80;91.60
6439;DHT22;3252;52.540;13.290;2024-01-15T10:30:04;20.80;92.40
6439;DHT22;3252;52.540;13.290;2024-01-15T10:32:07;20.80;92.90
6439;DHT22;3252;52.540;13.290;2024-01-15T10:34:12;20.90;92.00
6439;DHT22;3252;52.540;13.290;2024-01-15T10:36:16;20.90;91.90
6439;DHT22;3252;52.540;13.290;2024-01-15T10:38:19;20.90;91.90
6439;DHT22;3252;52.540;13.290;2024-01-15T10:40:23;21.00;92.10
6439;DHT22;3252;52.540;13.290;2024-01-15T10:42:24;21.00;65.80
6439;DHT22;3252;52.540;13.290;2024-01-15T10:44:26;21.00;58.80
6439;DHT22;3252;52.540;13.290;2024-01-15T10:46:29;20.90;57.20
6439;DHT22;3252;52.540;13.290;2024-01-15T10:48:33;20.80;58.80
6439;DHT22;3252;52.540;13.290;2024-01-15T10:50:38;20.80;66.20
6439;DHT22;3252;52.540;13.290;2024-01-15T10:52:41;20.80;70.30
6439;DHT22;3252;52.540;13.290;2024-01-15T10:54:43;20.80;73.20
6439;DHT22;3252;52.540;13.290;2024-01-15T10:56:46;20.90;76.00
6439;DHT22;3252;52.540;13.290;2024-01-15T10:58:49;20.90;77.50
6439;DHT22;3252;52.540;13.290;2024-01-15T11:00:51;20.90;78.70
6439;DHT22;3252;52.540;13.290;2024-01-15T11:02:54;20.90;79.70
6439;DHT22;3252;52.540;13.290;2024-01-15T11:04:56;20.90;80.30
6439;DHT22;3252;52.540;13.290;2024-01-15T11:07:00;20.90;81.10
6439;DHT22;3252;52.540;13.290;2024-01-15T11:09:04;21.00;82.50
6439;DHT22;3252;52.540;13.290;2024-01-15T11:11:05;21.00;82.30
6439;DHT22;3252;52.540;13.290;2024-01-15T11:13:14;21.00;82.50
6439;DHT22;3252;52.540;13.290;2024-01-15T11:15:19;20.90;83.00
6439;DHT22;3252;52.540;13.290;2024-01-15T11:17:22;21.00;83.40
6439;DHT22;3252;52.540;13.290;2024-01-15T11:19:24;21.00;83.60
6439;DHT22;3252;52.540;13.290;2024-01-15T11:21:26;21.00;83.90
6439;DHT22;3252;52.540;13.290;2024-01-15T11:23:44;21.00;84.00
6439;DHT22;3252;52.540;13.290;2024-01-15T11:25:47;21.00;84.40
6439;DHT22;3252;52.540;13.290;2024-01-15T11:27:50;21.00;84.60
6439;DHT22;3252;52.540;13.290;2024-01-15T11:30:03;21.00;86.00
6439;DHT22;3252;52.540;13.290;2024-01-15T11:32:06;21.00;89.50
6439;DHT22;3252;52.540;13.290;2024-01-15T11:34:10;21.00;86.90
6439;DHT22;3252;52.540;13.290;2024-01-15T11:36:13;21.00;87.00
6439;DHT22;3252;52.540;13.290;2024-01-15T11:38:26;21.00;87.40
6439;DHT22;3252;52.540;13.290;2024-01-15T11:40:40;21.00;87.90
6439;DHT22;3252;52.540;13.290;2024-01-15T11:42:45;21.00;88.30
6439;DHT22;3252;52.540;13.290;2024-01-15T11:44:48;21.00;88.80
6439;DHT22;3252;52.540;13.290;2024-01-15T11:47:00;20.90;89.10
6439;DHT22;3252;52.540;13.290;2024-01-15T11:49:03;20.90;89.50
6439;DHT22;3252;52.540;13.290;2024-01-15T11:51:08;20.90;89.90
6439;DHT22;3252;52.540;13.290;2024-01-15T11:53:17;20.90;90.10
6439;DHT22;3252;52.540;13.290;2024-01-15T11:55:26;20.90;90.20
6439;DHT22;3252;52.540;13.290;2024-01-15T11:57:37;20.90;90.40
6439;DHT22;3252;52.540;13.290;2024-01-15T11:59:42;20.90;90.50
6439;DHT22;3252;52.540;13.290;2024-01-15T12:01:44;20.90;90.60
6439;DHT22;3252;52.540;13.290;2024-01-15T12:03:47;21.00;90.80
6439;DHT22;3252;52.540;13.290;2024-01-15T12:05:49;21.00;90.80
6439;DHT22;3252;52.540;13.290;2024-01-15T12:07:51;21.00;91.00
6439;DHT22;3252;52.540;13.290;2024-01-15T12:09:53;21.00;91.00
6439;DHT22;3252;52.540;13.290;2024-01-15T12:12:01;20.90;91.10
6439;DHT22;3252;52.540;13.290;2024-01-15T12:14:07;21.00;91.20
6439;DHT22;3252;52.540;13.290;2024-01-15T12:16:10;21.00;91.30
6439;DHT22;3252;52.540;13.290;2024-01-15T12:18:14;21.00;91.40
6439;DHT22;3252;52.540;13.290;2024-01-15T12:20:17;21.00;91.40
6439;DHT22;3252;52.540;13.290;2024-01-15T12:22:19;21.00;91.50
6439;DHT22;3252;52.540;13.290;2024-01-15T12:24:21;21.00;91.60
6439;DHT22;3252;52.540;13.290;2024-01-15T12:26:23;21.00;91.60
6439;DHT22;3252;52.540;13.290;2024-01-15T12:28:27;21.00;91.70
6439;DHT22;3252;52.540;13.290;2024-01-15T12:30:33;21.00;91.80
6439;DHT22;3252;52.540;13.290;2024-01-15T12:32:36;21.10;91.90
6439;DHT22;3252;52.540;13.290;2024-01-15T12:34:38;21.10;92.00
6439;DHT22;3252;52.540;13.290;2024-01-15T12:36:41;21.10;92.00
6439;DHT22;3252;52.540;13.290;2024-01-15T12:38:44;21.10;92.70
6439;DHT22;3252;52.540;13.290;2024-01-15T12:40:47;21.10;92.20
6439;DHT22;3252;52.540;13.290;2024-01-15T12:42:50;21.10;92.20
6439;DHT22;3252;52.540;13.290;2024-01-15T12:44:51;21.20;92.30
6439;DHT22;3252;52.540;13.290;2024-01-15T12:46:54;21.20;92.40
6439;DHT22;3252;52.540;13.290;2024-01-15T12:48:57;21.20;92.20
6439;DHT22;3252;52.540;13.290;2024-01-15T12:50:59;21.20;92.30
6439;DHT22;3252;52.540;13.290;2024-01-15T12:53:01;21.20;93.00
6439;DHT22;3252;52.540;13.290;2024-01-15T12:55:04;21.20;92.90
6439;DHT22;3252;52.540;13.290;2024-01-15T12:57:06;21.20;92.50
6439;DHT22;3252;52.540;13.290;2024-01-15T12:59:08;21.20;92.70
6439;DHT22;3252;52.540;13.290;2024-01-15T13:01:10;21.20;92.50
6439;DHT22;3252;52.540;13.290;2024-01-15T13:03:14;21.20;92.50
6439;DHT22;3252;52.540;13.290;2024-01-15T13:05:16;21.20;92.30
6439;DHT22;3252;52.540;13.290;2024-01-15T13:07:18;21.20;92.10